Terminal Aerodrome Forecast
Issued by NWS Green Bay, WI

Home | Current Version | Previous Version | Graphics & Text | Print | Product List | Glossary On
Versions: 1 2 3 4 5 6 7 8 9 10 11 12 13 14 15 16 17 18 19 20 21 22 23
000
FTUS43 KGRB 242329
TAFGRB
TAF
KGRB 242329Z 2500/2524 09012G20KT P6SM VCSH SCT020 BKN080
      TEMPO 2500/2502 -RA SCT015 BKN020
     FM250200 10014G24KT 6SM -RA BR OVC010 WS020/13045KT
      TEMPO 2502/2506 3SM -RA BR OVC007
     FM250600 13014G23KT 2SM -RA BR OVC008 WS020/13045KT
     FM250800 20013G24KT 3SM -RASN BR OVC008
     FM251000 23015G30KT 6SM -RASN OVC015
     FM251400 25022G35KT P6SM SCT025
     FM251900 25020G34KT P6SM SKC
     FM252200 24016G26KT P6SM SKC=

USA.gov is the U.S. government's official web portal to all federal, state and local government web resources and services.